Dom Feliciano, Brazil
Current Conditions -  °F | °C
As of 9:00 PM on Sunday 21 Dec 2014 (Local Time) from SBPA Reporting Station
Light Rain Light Rain  
Wind Chill: 72°   Ceiling: 2000
Heat Index: 72°   Visibility: 6mi
Dew Point: 70°   Wind: 3mph
Humidity: 94%   Direction: 240°WSW
Pressure: 29.59"   Gusts: NA
Location:  30.7°S, 52.11°W
Report Text: SBPA 212300Z 24003KT 9000 -RA FEW008 BKN020 OVC100 22/21 Q1002
Loading
Personal Weather Stations






























Interactive Weather Map New forecast layout! Learn more

10-Day Weather Forecast

Advertisements
Track Severe Weather on mobile